Time;durP1;ratioP1;P1;durP2;ratioP2;P2;SDS_P1;SDS_P2;PMS_P1;PMS_P2;Temp;Humidity;BMP_temperature;BMP_pressure;BME280_temperature;BME280_humidity;BME280_pressure;Samples;Min_cycle;Max_cycle;Signal;HPM_P1;HPM_P2
2024/01/17 00:00:54;;;;;;;16.73;9.50;;;-1.10;99.90;;;;;;4866741;29;20512;-48
2024/01/17 00:03:20;;;;;;;13.00;9.60;;;-1.10;99.90;;;;;;4871975;29;20145;-46
2024/01/17 00:05:46;;;;;;;16.63;9.52;;;-1.10;99.90;;;;;;4868606;29;20544;-47
2024/01/17 00:08:11;;;;;;;16.05;9.73;;;-1.10;99.90;;;;;;4867010;29;20060;-48
2024/01/17 00:10:37;;;;;;;15.48;10.07;;;-1.10;99.90;;;;;;4852381;29;20143;-48
2024/01/17 00:13:03;;;;;;;17.25;9.77;;;-1.10;99.90;;;;;;4871003;29;20382;-48
2024/01/17 00:15:28;;;;;;;14.80;9.63;;;-1.10;99.90;;;;;;4871858;29;20041;-46
2024/01/17 00:17:54;;;;;;;15.82;9.68;;;-1.10;99.90;;;;;;4871037;29;20967;-47
2024/01/17 00:20:20;;;;;;;14.20;9.70;;;-1.10;99.90;;;;;;4871909;29;20128;-46
2024/01/17 00:22:45;;;;;;;14.63;9.75;;;-1.10;99.90;;;;;;4868297;29;20088;-46
2024/01/17 00:25:11;;;;;;;13.68;10.35;;;-1.10;99.90;;;;;;4869703;29;20085;-46
2024/01/17 00:27:38;;;;;;;15.13;10.80;;;-1.10;99.90;;;;;;4867157;29;20044;-46
2024/01/17 00:30:04;;;;;;;16.23;10.13;;;-1.10;99.90;;;;;;4866836;29;20393;-46
2024/01/17 00:32:31;;;;;;;15.23;9.82;;;-1.10;99.90;;;;;;4869491;29;20071;-46
2024/01/17 00:34:57;;;;;;;15.73;10.85;;;-1.10;99.90;;;;;;4866307;29;20049;-46
2024/01/17 00:37:22;;;;;;;15.27;9.98;;;-1.10;99.90;;;;;;4867996;29;20053;-45
2024/01/17 00:39:48;;;;;;;16.70;10.20;;;-1.10;99.90;;;;;;4866354;29;20053;-46
2024/01/17 00:42:14;;;;;;;15.45;10.80;;;-1.10;99.90;;;;;;4857714;29;20056;-45
2024/01/17 00:44:41;;;;;;;16.27;10.38;;;-1.10;99.90;;;;;;4870398;29;20072;-46
2024/01/17 00:47:07;;;;;;;16.08;11.13;;;-1.10;99.90;;;;;;4867635;29;20135;-46
2024/01/17 00:49:32;;;;;;;19.00;11.18;;;-1.10;99.90;;;;;;4868631;29;20047;-45
2024/01/17 00:51:58;;;;;;;15.07;10.77;;;-1.10;99.90;;;;;;4869323;29;20209;-46
2024/01/17 00:54:24;;;;;;;16.63;10.75;;;-1.10;99.90;;;;;;4868428;29;20049;-46
2024/01/17 00:56:50;;;;;;;17.13;11.65;;;-1.10;99.90;;;;;;4867312;29;20041;-48
2024/01/17 00:59:15;;;;;;;18.60;12.18;;;-1.10;99.90;;;;;;4871468;29;20139;-46
2024/01/17 01:01:41;;;;;;;18.08;11.52;;;-1.10;99.90;;;;;;4869031;29;20052;-48
2024/01/17 01:04:09;;;;;;;20.42;12.77;;;-1.10;99.90;;;;;;4870309;29;20492;-46
2024/01/17 01:06:35;;;;;;;18.15;12.02;;;-1.20;99.90;;;;;;4867150;29;20048;-46
2024/01/17 01:09:01;;;;;;;22.40;12.73;;;;;;;;;;4872075;29;20048;-46
2024/01/17 01:11:30;;;;;;;18.25;12.38;;;-1.20;99.90;;;;;;4866639;29;20441;-48
2024/01/17 01:13:56;;;;;;;19.52;12.52;;;-1.30;99.90;;;;;;4871437;29;20045;-47
2024/01/17 01:16:21;;;;;;;18.25;13.27;;;-1.30;99.90;;;;;;4867888;29;20067;-45
2024/01/17 01:18:47;;;;;;;20.90;13.13;;;-1.30;99.90;;;;;;4870473;29;20401;-45
2024/01/17 01:21:12;;;;;;;21.50;13.30;;;-1.30;99.90;;;;;;4869398;29;20045;-45
2024/01/17 01:23:38;;;;;;;16.95;12.50;;;-1.40;99.90;;;;;;4867449;29;20544;-47
2024/01/17 01:26:03;;;;;;;18.77;12.27;;;-1.40;99.90;;;;;;4867795;29;20068;-45
2024/01/17 01:28:29;;;;;;;19.17;12.93;;;-1.40;99.90;;;;;;4867839;29;20037;-46
2024/01/17 01:30:54;;;;;;;17.85;12.35;;;-1.40;99.90;;;;;;4873025;29;20106;-46
2024/01/17 01:33:21;;;;;;;18.75;13.07;;;-1.50;99.90;;;;;;4876364;29;20060;-45
2024/01/17 01:35:46;;;;;;;20.50;13.30;;;-1.50;99.90;;;;;;4857073;29;20471;-46
2024/01/17 01:38:12;;;;;;;17.67;12.98;;;-1.60;99.90;;;;;;4867215;29;20041;-46
2024/01/17 01:40:38;;;;;;;18.92;13.55;;;-1.60;99.90;;;;;;4871085;29;20037;-45
2024/01/17 01:43:20;;;;;;;17.73;12.45;;;-1.60;99.90;;;;;;4871649;29;20037;-44
2024/01/17 01:46:04;;;;;;;20.45;13.68;;;-1.60;99.90;;;;;;4868678;29;20053;-44
2024/01/17 01:48:31;;;;;;;17.67;13.32;;;-1.60;99.90;;;;;;4867864;29;20396;-44
2024/01/17 01:50:57;;;;;;;21.52;13.60;;;-1.60;99.90;;;;;;4871635;29;20515;-45
2024/01/17 01:53:24;;;;;;;20.85;14.35;;;-1.60;99.90;;;;;;4863971;29;20527;-46
2024/01/17 01:55:53;;;;;;;24.73;14.07;;;-1.60;99.90;;;;;;4868775;29;20053;-45
2024/01/17 01:58:20;;;;;;;21.88;13.43;;;-1.50;99.90;;;;;;4868832;29;20136;-45
2024/01/17 02:00:46;;;;;;;20.55;13.52;;;-1.50;99.90;;;;;;4873967;29;20190;-45
2024/01/17 02:03:13;;;;;;;22.85;12.93;;;-1.50;99.90;;;;;;4860880;29;20139;-47
2024/01/17 02:05:39;;;;;;;20.25;12.88;;;-1.50;99.90;;;;;;4873411;29;20068;-46
2024/01/17 02:08:06;;;;;;;23.42;14.25;;;-1.40;99.90;;;;;;4871751;29;20064;-45
2024/01/17 02:10:31;;;;;;;20.88;13.80;;;-1.40;99.90;;;;;;4870321;29;20100;-47
2024/01/17 02:12:58;;;;;;;26.38;14.20;;;-1.40;99.90;;;;;;4868496;29;20793;-44
2024/01/17 02:15:24;;;;;;;24.23;14.93;;;-1.40;99.90;;;;;;4870400;29;20118;-45
2024/01/17 02:17:50;;;;;;;17.33;13.05;;;-1.40;99.90;;;;;;4850584;29;20093;-45
2024/01/17 02:20:16;;;;;;;19.33;13.02;;;-1.40;99.90;;;;;;4869935;29;20053;-45
2024/01/17 02:22:41;;;;;;;18.38;14.02;;;-1.30;99.90;;;;;;4868784;29;20420;-44
2024/01/17 02:25:07;;;;;;;24.45;13.20;;;-1.40;99.90;;;;;;4867082;29;20049;-44
2024/01/17 02:27:33;;;;;;;21.10;13.77;;;-1.40;99.90;;;;;;4850390;29;20543;-45
2024/01/17 02:29:58;;;;;;;19.75;13.20;;;-1.40;99.90;;;;;;4866019;29;20044;-44
2024/01/17 02:32:25;;;;;;;18.67;13.25;;;-1.40;99.90;;;;;;4865991;29;20129;-45
2024/01/17 02:34:51;;;;;;;16.60;12.73;;;-1.30;99.90;;;;;;4863610;29;20052;-45
2024/01/17 02:37:17;;;;;;;19.85;13.43;;;-1.40;99.90;;;;;;4863482;29;20044;-45
2024/01/17 02:39:42;;;;;;;21.75;12.82;;;-1.40;99.90;;;;;;4872726;29;20072;-45
2024/01/17 02:42:08;;;;;;;19.20;12.95;;;-1.40;99.90;;;;;;4866977;29;20120;-44
2024/01/17 02:44:33;;;;;;;19.67;12.23;;;-1.40;99.90;;;;;;4871361;29;20052;-47
2024/01/17 02:46:59;;;;;;;19.15;13.65;;;-1.40;99.90;;;;;;4872555;29;20045;-45
2024/01/17 02:49:25;;;;;;;17.30;12.75;;;-1.40;99.90;;;;;;4851625;29;20537;-46
2024/01/17 02:51:50;;;;;;;18.42;12.40;;;-1.40;99.90;;;;;;4868321;29;20049;-44
2024/01/17 02:54:16;;;;;;;16.23;12.68;;;-1.40;99.90;;;;;;4864423;29;20140;-47
2024/01/17 02:56:42;;;;;;;16.38;10.50;;;-1.40;99.90;;;;;;4850600;29;20041;-45
2024/01/17 02:59:08;;;;;;;18.40;12.75;;;-1.40;99.90;;;;;;4866850;29;20417;-45
2024/01/17 03:01:33;;;;;;;18.10;12.48;;;-1.40;99.90;;;;;;4869559;29;20407;-44
2024/01/17 03:03:59;;;;;;;16.75;11.70;;;-1.40;99.90;;;;;;4867695;29;20473;-45
2024/01/17 03:06:25;;;;;;;19.92;12.55;;;-1.40;99.90;;;;;;4867501;29;20621;-44
2024/01/17 03:08:50;;;;;;;15.60;11.45;;;-1.50;99.90;;;;;;4855494;29;20412;-45
2024/01/17 03:11:16;;;;;;;22.15;12.88;;;-1.50;99.90;;;;;;4855397;29;20132;-46
2024/01/17 03:13:42;;;;;;;18.55;12.63;;;-1.50;99.90;;;;;;4865259;29;20053;-47
2024/01/17 03:16:07;;;;;;;20.30;12.77;;;-1.50;99.90;;;;;;4867340;29;20052;-44
2024/01/17 03:18:33;;;;;;;17.70;11.63;;;-1.50;99.90;;;;;;4869159;29;20072;-44
2024/01/17 03:21:02;;;;;;;17.17;10.95;;;-1.50;99.90;;;;;;4877883;29;20037;-46
2024/01/17 03:23:28;;;;;;;18.52;12.07;;;-1.60;99.90;;;;;;4872470;29;20392;-46
2024/01/17 03:25:54;;;;;;;14.98;10.68;;;-1.60;99.90;;;;;;4874012;29;20088;-45
2024/01/17 03:28:19;;;;;;;16.38;11.15;;;-1.60;99.90;;;;;;4871515;29;20052;-47
2024/01/17 03:30:45;;;;;;;17.10;10.93;;;-1.60;99.90;;;;;;4868609;29;20144;-48
2024/01/17 03:33:10;;;;;;;15.45;11.68;;;-1.60;99.90;;;;;;4871438;29;20330;-44
2024/01/17 03:35:36;;;;;;;16.25;11.50;;;-1.60;99.90;;;;;;4867763;29;20105;-44
2024/01/17 03:38:02;;;;;;;16.05;11.25;;;-1.60;99.90;;;;;;4871880;29;20100;-44
2024/01/17 03:40:27;;;;;;;20.02;12.02;;;-1.70;99.90;;;;;;4871184;29;20049;-46
2024/01/17 03:42:53;;;;;;;20.30;11.80;;;-1.60;99.90;;;;;;4867670;29;20041;-45
2024/01/17 03:45:18;;;;;;;17.98;11.52;;;-1.70;99.90;;;;;;4866944;29;20056;-44
2024/01/17 03:47:44;;;;;;;13.88;11.10;;;-1.70;99.90;;;;;;4872413;29;20117;-45
2024/01/17 03:50:10;;;;;;;20.08;12.13;;;-1.70;99.90;;;;;;4866707;29;20049;-44
2024/01/17 03:52:35;;;;;;;18.20;12.18;;;-1.70;99.90;;;;;;4866327;29;20107;-46
2024/01/17 03:55:01;;;;;;;15.10;11.98;;;-1.70;99.90;;;;;;4873324;29;20128;-43
2024/01/17 03:57:27;;;;;;;12.63;10.68;;;-1.70;99.90;;;;;;4876112;29;20047;-44
2024/01/17 03:59:53;;;;;;;17.17;12.00;;;-1.70;99.90;;;;;;4868134;29;20044;-44
2024/01/17 04:02:18;;;;;;;16.05;11.02;;;-1.70;99.90;;;;;;4847982;29;20572;-45
2024/01/17 04:04:45;;;;;;;18.45;11.18;;;-1.70;99.90;;;;;;4869603;29;20054;-45
2024/01/17 04:07:11;;;;;;;17.45;11.00;;;-1.70;99.90;;;;;;4857088;29;20140;-45
2024/01/17 04:09:37;;;;;;;17.08;11.77;;;-1.70;99.90;;;;;;4871528;29;20053;-44
2024/01/17 04:12:03;;;;;;;17.13;11.77;;;-1.70;99.90;;;;;;4867665;29;20837;-47
2024/01/17 04:14:28;;;;;;;18.20;12.35;;;-1.70;99.90;;;;;;4869607;29;20056;-45
2024/01/17 04:16:54;;;;;;;20.38;12.10;;;-1.70;99.90;;;;;;4875429;29;20126;-45
2024/01/17 04:19:20;;;;;;;14.80;11.13;;;-1.70;99.90;;;;;;4869432;29;20048;-45
2024/01/17 04:21:45;;;;;;;19.95;11.98;;;-1.70;99.90;;;;;;4870576;29;20195;-44
2024/01/17 04:24:11;;;;;;;14.80;11.80;;;-1.70;99.90;;;;;;4866799;29;20495;-44
2024/01/17 04:26:36;;;;;;;17.23;10.38;;;-1.60;99.90;;;;;;4869067;29;20119;-44
2024/01/17 04:29:03;;;;;;;17.13;10.88;;;-1.70;99.90;;;;;;4870299;29;20496;-45
2024/01/17 04:31:30;;;;;;;19.73;11.02;;;-1.60;99.90;;;;;;4866803;29;20496;-47
2024/01/17 04:33:57;;;;;;;17.30;11.23;;;-1.60;99.90;;;;;;4849704;29;20147;-47
2024/01/17 04:36:26;;;;;;;19.65;10.95;;;-1.60;99.90;;;;;;4874527;29;20052;-44
2024/01/17 04:38:51;;;;;;;14.55;10.43;;;-1.60;99.90;;;;;;4869422;29;20192;-44
2024/01/17 04:41:18;;;;;;;14.70;10.50;;;-1.60;99.90;;;;;;4868479;29;20053;-44
2024/01/17 04:43:44;;;;;;;18.73;11.38;;;-1.60;99.90;;;;;;4872946;29;20085;-45
2024/01/17 04:46:14;;;;;;;14.65;11.30;;;-1.60;99.90;;;;;;4873313;29;20369;-45
2024/01/17 04:48:41;;;;;;;16.05;10.80;;;-1.60;99.90;;;;;;4873044;29;20508;-44
2024/01/17 04:51:09;;;;;;;18.45;10.95;;;-1.60;99.90;;;;;;4871271;29;20053;-46
2024/01/17 04:53:37;;;;;;;16.30;11.57;;;-1.60;99.90;;;;;;4868811;29;20116;-44
2024/01/17 04:56:06;;;;;;;16.15;11.25;;;-1.70;99.90;;;;;;4866749;29;20151;-45
2024/01/17 04:58:32;;;;;;;16.23;10.82;;;-1.70;99.90;;;;;;4870566;29;20094;-45
2024/01/17 05:00:59;;;;;;;14.98;10.63;;;-1.60;99.90;;;;;;4855779;29;20381;-44
2024/01/17 05:03:25;;;;;;;19.30;11.10;;;-1.70;99.90;;;;;;4869162;29;20488;-44
2024/01/17 05:05:51;;;;;;;16.35;10.88;;;-1.70;99.90;;;;;;4851548;29;20041;-45
2024/01/17 05:08:16;;;;;;;16.77;10.55;;;-1.70;99.90;;;;;;4872649;29;21355;-44
2024/01/17 05:10:43;;;;;;;15.52;11.07;;;-1.70;99.90;;;;;;4871785;29;20045;-45
2024/01/17 05:13:10;;;;;;;16.30;11.18;;;-1.70;99.90;;;;;;4868277;29;20045;-46
2024/01/17 05:15:36;;;;;;;16.83;11.38;;;-1.70;99.90;;;;;;4866312;29;20056;-45
2024/01/17 05:18:02;;;;;;;15.10;10.90;;;-1.70;99.90;;;;;;4866934;29;20048;-44
2024/01/17 05:20:27;;;;;;;15.30;10.57;;;-1.80;99.90;;;;;;4854289;29;20037;-45
2024/01/17 05:22:53;;;;;;;14.77;10.63;;;-1.80;99.90;;;;;;4871531;29;20056;-48
2024/01/17 05:25:18;;;;;;;16.30;10.25;;;-1.80;99.90;;;;;;4868402;29;20045;-44
2024/01/17 05:27:51;;;;;;;13.63;11.38;;;-1.80;99.90;;;;;;4866524;29;20055;-46
2024/01/17 05:30:18;;;;;;;16.55;11.48;;;-1.90;99.90;;;;;;4851102;29;20112;-44
2024/01/17 05:32:44;;;;;;;16.92;11.13;;;-1.90;99.90;;;;;;4864299;29;20041;-45
2024/01/17 05:35:10;;;;;;;17.77;11.55;;;-1.90;99.90;;;;;;4866000;29;20533;-45
2024/01/17 05:37:38;;;;;;;21.00;11.27;;;-1.90;99.90;;;;;;4849328;29;20037;-44
2024/01/17 05:40:04;;;;;;;;;;;-1.90;99.90;;;;;;4869956;29;20642;-44
2024/01/17 05:42:30;;;;;;;17.08;10.68;;;-2.00;99.90;;;;;;4865260;29;20623;-45
2024/01/17 05:44:56;;;;;;;15.60;10.75;;;-2.00;99.90;;;;;;4869394;29;20080;-44
2024/01/17 05:47:21;;;;;;;16.52;10.60;;;-2.00;99.90;;;;;;4877042;29;20397;-44
2024/01/17 05:49:47;;;;;;;16.00;10.38;;;-2.00;99.90;;;;;;4875679;29;20055;-47
2024/01/17 05:52:12;;;;;;;16.52;10.80;;;-2.00;99.90;;;;;;4851723;29;20787;-45
2024/01/17 05:54:38;;;;;;;16.85;11.20;;;-2.00;99.90;;;;;;4869926;29;20052;-44
2024/01/17 05:57:04;;;;;;;19.70;11.40;;;-2.10;99.90;;;;;;4874810;29;20076;-44
2024/01/17 05:59:30;;;;;;;19.00;10.60;;;-2.10;99.90;;;;;;4870809;29;20048;-44
2024/01/17 06:01:55;;;;;;;19.02;10.63;;;-2.00;99.90;;;;;;4871456;29;20045;-44
2024/01/17 06:04:21;;;;;;;19.27;10.95;;;-2.10;99.90;;;;;;4871529;29;20048;-46
2024/01/17 06:06:46;;;;;;;14.40;10.15;;;-2.10;99.90;;;;;;4865982;29;20073;-44
2024/01/17 06:09:14;;;;;;;14.30;11.05;;;-2.10;99.90;;;;;;4865363;29;20047;-47
2024/01/17 06:11:39;;;;;;;13.40;9.40;;;-2.10;99.90;;;;;;4868844;29;20045;-44
2024/01/17 06:14:05;;;;;;;16.98;10.48;;;-2.10;99.90;;;;;;4867165;29;20116;-45
2024/01/17 06:16:30;;;;;;;15.02;10.10;;;-2.10;99.90;;;;;;4867567;29;20053;-46
2024/01/17 06:18:59;;;;;;;14.25;9.70;;;-2.10;99.90;;;;;;4871564;29;20045;-45
2024/01/17 06:21:25;;;;;;;12.85;9.23;;;-2.20;99.90;;;;;;4867098;29;20097;-44
2024/01/17 06:23:51;;;;;;;14.15;9.90;;;-2.20;99.90;;;;;;4869905;29;20037;-46
2024/01/17 06:26:17;;;;;;;16.88;9.88;;;-2.20;99.90;;;;;;4871909;29;20112;-46
2024/01/17 06:28:43;;;;;;;14.40;9.60;;;-2.20;99.90;;;;;;4868812;29;21635;-48
2024/01/17 06:31:09;;;;;;;15.32;10.43;;;-2.20;99.90;;;;;;4864108;29;20040;-45
2024/01/17 06:33:34;;;;;;;14.40;10.55;;;-2.20;99.90;;;;;;4849398;29;20063;-46
2024/01/17 06:36:00;;;;;;;15.38;10.30;;;-2.20;99.90;;;;;;4865157;29;20381;-44
2024/01/17 06:38:25;;;;;;;15.55;10.40;;;-2.20;99.90;;;;;;4868484;29;20094;-45
2024/01/17 06:40:51;;;;;;;14.70;9.68;;;-2.20;99.90;;;;;;4873112;29;20625;-45
2024/01/17 06:43:17;;;;;;;16.35;10.07;;;-2.20;99.90;;;;;;4870736;29;20101;-44
2024/01/17 06:45:42;;;;;;;15.93;10.35;;;-2.20;99.90;;;;;;4867537;29;20045;-45
2024/01/17 06:48:08;;;;;;;13.85;9.73;;;-2.30;99.90;;;;;;4870180;29;20052;-45
2024/01/17 06:50:34;;;;;;;14.50;9.85;;;-2.20;99.90;;;;;;4868638;29;20045;-46
2024/01/17 06:52:59;;;;;;;14.50;9.48;;;-2.30;99.90;;;;;;4868835;29;20059;-45
2024/01/17 06:55:25;;;;;;;12.90;9.48;;;-2.30;99.90;;;;;;4864955;29;20107;-45
2024/01/17 06:57:51;;;;;;;14.52;9.52;;;-2.30;99.90;;;;;;4864956;29;20060;-45
2024/01/17 07:00:17;;;;;;;12.93;9.05;;;-2.40;99.90;;;;;;4864705;29;20048;-44
2024/01/17 07:02:43;;;;;;;11.73;9.82;;;-2.40;99.90;;;;;;4864831;29;20057;-49
2024/01/17 07:05:09;;;;;;;13.63;9.35;;;-2.40;99.90;;;;;;4868204;29;20108;-46
2024/01/17 07:07:37;;;;;;;12.90;9.65;;;-2.40;99.90;;;;;;4871671;29;20065;-44
2024/01/17 07:10:05;;;;;;;16.33;10.63;;;-2.40;99.90;;;;;;4850302;29;20081;-44
2024/01/17 07:12:30;;;;;;;16.05;10.18;;;-2.40;99.90;;;;;;4865630;29;20082;-44
2024/01/17 07:14:56;;;;;;;14.80;9.95;;;-2.40;99.90;;;;;;4865626;29;20183;-44
2024/01/17 07:17:22;;;;;;;14.40;9.55;;;-2.40;99.90;;;;;;4867344;29;20519;-44
2024/01/17 07:19:47;;;;;;;13.60;9.63;;;-2.40;99.90;;;;;;4869558;29;20503;-44
2024/01/17 07:22:13;;;;;;;15.10;9.43;;;-2.40;99.90;;;;;;4866955;29;20049;-45
2024/01/17 07:24:39;;;;;;;17.52;9.73;;;-2.40;99.90;;;;;;4868636;29;20091;-46
2024/01/17 07:27:04;;;;;;;14.60;9.82;;;-2.40;99.90;;;;;;4868189;29;20140;-44
2024/01/17 07:29:30;;;;;;;13.07;10.05;;;-2.40;99.90;;;;;;4866446;29;20588;-45
2024/01/17 07:31:56;;;;;;;20.45;10.27;;;-2.40;99.90;;;;;;4865377;29;20068;-44
2024/01/17 07:34:22;;;;;;;12.98;9.82;;;-2.40;99.90;;;;;;4866672;29;20125;-44
2024/01/17 07:36:48;;;;;;;16.13;9.65;;;-2.30;99.90;;;;;;4868418;29;20041;-44
2024/01/17 07:39:14;;;;;;;15.52;9.45;;;-2.30;99.90;;;;;;4871688;29;20045;-44
2024/01/17 07:41:40;;;;;;;13.20;9.30;;;-2.20;99.90;;;;;;4866725;29;20049;-44
2024/01/17 07:44:06;;;;;;;16.88;10.23;;;-2.20;99.90;;;;;;4865606;29;20125;-44
2024/01/17 07:46:32;;;;;;;15.80;9.52;;;-2.20;99.90;;;;;;4849904;29;20800;-46
2024/01/17 07:48:58;;;;;;;15.13;10.43;;;-2.20;99.90;;;;;;4870022;29;20045;-45
2024/01/17 07:51:24;;;;;;;14.02;10.05;;;-2.10;99.90;;;;;;4867524;29;20700;-45
2024/01/17 07:53:49;;;;;;;13.90;9.73;;;-2.10;99.90;;;;;;4865309;29;20045;-45
2024/01/17 07:56:15;;;;;;;14.38;9.90;;;-2.10;99.90;;;;;;4864277;29;20188;-46
2024/01/17 07:58:41;;;;;;;13.20;9.23;;;-2.00;99.90;;;;;;4863771;29;20049;-46
2024/01/17 08:01:06;;;;;;;13.32;9.35;;;-2.00;99.90;;;;;;4868810;29;20166;-45
2024/01/17 08:03:32;;;;;;;14.98;9.57;;;-2.00;99.90;;;;;;4873036;29;20067;-44
2024/01/17 08:05:58;;;;;;;14.85;9.50;;;-2.10;99.90;;;;;;4873458;29;20068;-45
2024/01/17 08:08:23;;;;;;;11.93;9.65;;;-2.10;99.90;;;;;;4875184;29;20048;-44
2024/01/17 08:10:49;;;;;;;15.55;9.85;;;-2.10;99.90;;;;;;4872980;29;20037;-45
2024/01/17 08:13:15;;;;;;;12.95;9.38;;;-2.10;99.90;;;;;;4854786;29;21857;-45
2024/01/17 08:15:41;;;;;;;14.38;9.73;;;-2.00;99.90;;;;;;4849854;29;20049;-46
2024/01/17 08:18:08;;;;;;;16.55;10.77;;;-2.00;99.90;;;;;;4864667;29;20168;-45
2024/01/17 08:20:34;;;;;;;17.35;10.52;;;-2.00;99.90;;;;;;4853403;29;20063;-44
2024/01/17 08:23:00;;;;;;;13.85;9.65;;;-2.00;99.90;;;;;;4869787;29;20784;-45
2024/01/17 08:25:26;;;;;;;14.40;10.50;;;;;;;;;;4865426;29;20048;-45
2024/01/17 08:27:54;;;;;;;15.60;10.07;;;-2.00;99.90;;;;;;4864265;29;20473;-44
2024/01/17 08:30:20;;;;;;;15.05;9.55;;;-1.90;99.90;;;;;;4870517;29;20048;-45
2024/01/17 08:32:45;;;;;;;15.20;9.27;;;-1.90;99.90;;;;;;4871314;29;20037;-46
2024/01/17 08:35:12;;;;;;;15.98;10.02;;;-1.90;99.90;;;;;;4864200;29;20053;-46
2024/01/17 08:37:37;;;;;;;14.30;9.50;;;-1.80;99.90;;;;;;4879509;29;20048;-44
2024/01/17 08:40:04;;;;;;;15.27;10.40;;;-1.80;99.90;;;;;;4878324;29;20049;-45
2024/01/17 08:42:29;;;;;;;13.18;9.70;;;-1.80;99.90;;;;;;4868363;29;20049;-45
2024/01/17 08:44:55;;;;;;;14.80;10.57;;;-1.80;99.90;;;;;;4877897;29;20367;-45
2024/01/17 08:47:20;;;;;;;17.13;10.32;;;-1.70;99.90;;;;;;4877022;29;20041;-44
2024/01/17 08:49:46;;;;;;;16.55;10.23;;;-1.70;99.90;;;;;;4878732;29;20140;-45
2024/01/17 08:52:12;;;;;;;15.52;10.55;;;-1.60;99.90;;;;;;4879183;29;20049;-44
2024/01/17 08:54:37;;;;;;;16.55;10.65;;;-1.60;99.90;;;;;;4878829;29;20427;-45
2024/01/17 08:57:03;;;;;;;17.25;10.02;;;-1.50;99.90;;;;;;4876872;29;20096;-45
2024/01/17 08:59:33;;;;;;;16.25;10.88;;;-1.40;99.90;;;;;;4879066;29;20052;-45
2024/01/17 09:01:59;;;;;;;14.25;10.07;;;-1.40;99.90;;;;;;4877681;29;20514;-45
2024/01/17 09:04:25;;;;;;;15.50;10.13;;;-1.40;99.90;;;;;;4876321;29;20045;-44
2024/01/17 09:06:51;;;;;;;14.40;10.27;;;-1.40;99.90;;;;;;4871362;29;20113;-45
2024/01/17 09:09:17;;;;;;;14.48;10.63;;;-1.30;99.90;;;;;;4877607;29;20049;-45
2024/01/17 09:11:42;;;;;;;15.38;9.70;;;-1.30;99.90;;;;;;4878951;29;20052;-46
2024/01/17 09:14:10;;;;;;;14.80;10.07;;;-1.20;99.90;;;;;;4877890;29;20054;-44
2024/01/17 09:16:36;;;;;;;16.07;11.27;;;-1.20;99.90;;;;;;4877833;29;20117;-44
2024/01/17 09:19:01;;;;;;;15.27;10.52;;;-1.10;99.90;;;;;;4877292;29;20045;-45
2024/01/17 09:21:28;;;;;;;13.07;9.98;;;-1.10;99.90;;;;;;4876373;29;20055;-46
2024/01/17 09:23:54;;;;;;;14.07;9.07;;;-1.00;99.90;;;;;;4877199;29;20053;-44
2024/01/17 09:26:19;;;;;;;16.00;9.90;;;-1.10;99.90;;;;;;4879061;29;20052;-45
2024/01/17 09:28:45;;;;;;;16.70;9.75;;;-1.00;99.90;;;;;;4878438;29;20044;-44
2024/01/17 09:31:11;;;;;;;16.23;10.27;;;-1.00;99.90;;;;;;4877233;29;20461;-45
2024/01/17 09:33:37;;;;;;;13.88;9.18;;;-1.00;99.90;;;;;;4871962;29;20053;-44
2024/01/17 09:36:04;;;;;;;14.27;9.52;;;-1.00;99.90;;;;;;4867051;29;20059;-45
2024/01/17 09:38:29;;;;;;;13.57;9.48;;;-0.90;99.90;;;;;;4877079;29;20052;-45
2024/01/17 09:40:55;;;;;;;14.77;9.55;;;-0.90;99.90;;;;;;4865270;29;20057;-45
2024/01/17 09:43:22;;;;;;;12.80;9.52;;;-0.80;99.90;;;;;;4882968;29;20381;-44
2024/01/17 09:45:47;;;;;;;15.98;10.45;;;-0.80;99.90;;;;;;4885007;29;20047;-48
2024/01/17 09:48:15;;;;;;;17.90;10.57;;;-0.80;99.90;;;;;;4863205;29;20475;-44
2024/01/17 09:50:40;;;;;;;17.00;9.82;;;-0.80;99.90;;;;;;4885363;29;20080;-46
2024/01/17 09:53:14;;;;;;;15.20;9.75;;;-0.70;99.90;;;;;;4882071;29;20084;-45
2024/01/17 09:55:41;;;;;;;14.23;10.07;;;-0.70;99.90;;;;;;4882126;29;20125;-44
2024/01/17 09:58:10;;;;;;;13.30;9.48;;;-0.70;99.90;;;;;;4883915;29;20036;-45
2024/01/17 10:00:36;;;;;;;16.13;10.38;;;-0.60;99.90;;;;;;4884900;29;20056;-45
2024/01/17 10:03:04;;;;;;;15.57;9.88;;;-0.60;99.90;;;;;;4883572;29;20037;-44
2024/01/17 10:05:31;;;;;;;14.55;9.60;;;-0.60;99.90;;;;;;4880227;29;20049;-47
2024/01/17 10:07:59;;;;;;;14.07;10.52;;;-0.60;99.90;;;;;;4865303;29;20044;-45
2024/01/17 10:10:25;;;;;;;14.48;9.73;;;-0.50;99.90;;;;;;4879171;29;20068;-44
2024/01/17 10:12:54;;;;;;;17.77;10.35;;;-0.50;99.90;;;;;;4873593;29;20053;-44
2024/01/17 10:15:23;;;;;;;18.38;10.48;;;-0.40;99.90;;;;;;4873278;29;20103;-45
2024/01/17 10:17:49;;;;;;;16.80;10.43;;;-0.40;99.90;;;;;;4878005;29;20117;-44
2024/01/17 10:20:16;;;;;;;16.27;10.18;;;-0.30;99.90;;;;;;4877746;29;20041;-46
2024/01/17 10:22:45;;;;;;;14.53;9.87;;;-0.30;99.90;;;;;;4872736;29;20128;-44
2024/01/17 10:25:12;;;;;;;15.85;10.30;;;-0.20;99.90;;;;;;4869507;29;20461;-45
2024/01/17 10:27:37;;;;;;;14.60;9.98;;;-0.30;99.90;;;;;;4876283;29;20396;-44
2024/01/17 10:30:04;;;;;;;17.52;10.20;;;-0.30;99.90;;;;;;4876271;29;20041;-44
2024/01/17 10:32:31;;;;;;;16.42;9.73;;;-0.20;99.90;;;;;;4875539;29;20060;-44
2024/01/17 10:34:58;;;;;;;14.57;9.95;;;-0.20;99.90;;;;;;4874940;29;20464;-44
2024/01/17 10:37:25;;;;;;;18.30;11.07;;;-0.20;99.90;;;;;;4875367;29;20065;-44
2024/01/17 10:40:11;;;;;;;16.83;10.82;;;-0.10;99.90;;;;;;4871959;29;20060;-44
2024/01/17 10:42:37;;;;;;;14.43;10.20;;;0.00;99.90;;;;;;4873580;29;20049;-45
2024/01/17 10:45:05;;;;;;;19.90;10.75;;;0.00;99.90;;;;;;4874906;29;20047;-45
2024/01/17 10:47:31;;;;;;;13.65;10.88;;;0.10;99.90;;;;;;4875526;29;20429;-44
2024/01/17 10:49:56;;;;;;;18.10;10.82;;;0.20;99.90;;;;;;4875458;29;20041;-45
2024/01/17 10:52:25;;;;;;;17.40;10.68;;;0.20;99.90;;;;;;4875363;29;20388;-45
2024/01/17 10:55:04;;;;;;;17.40;10.48;;;0.20;99.90;;;;;;4874708;29;20037;-45
2024/01/17 10:57:32;;;;;;;17.08;10.63;;;0.30;99.90;;;;;;4874495;29;20053;-44
2024/01/17 11:00:00;;;;;;;;;;;0.20;99.90;;;;;;4875695;29;20037;-45
2024/01/17 11:02:26;;;;;;;14.65;10.02;;;0.30;99.90;;;;;;4874226;29;20371;-44
2024/01/17 11:05:01;;;;;;;14.02;10.10;;;0.30;99.90;;;;;;4879243;29;20097;-46
2024/01/17 11:07:27;;;;;;;19.10;11.25;;;0.30;99.90;;;;;;4863939;29;20102;-44
2024/01/17 11:09:55;;;;;;;16.90;10.38;;;0.30;99.90;;;;;;4876676;29;20049;-44
2024/01/17 11:12:22;;;;;;;18.63;10.93;;;0.30;99.90;;;;;;4876646;29;20048;-45
2024/01/17 11:14:50;;;;;;;16.25;10.55;;;0.40;99.90;;;;;;4875553;29;20560;-44
2024/01/17 11:17:17;;;;;;;18.08;11.23;;;0.30;99.90;;;;;;4878910;29;20571;-45
2024/01/17 11:19:44;;;;;;;14.63;10.95;;;0.30;99.90;;;;;;4878763;29;20074;-45
2024/01/17 11:22:12;;;;;;;19.50;10.33;;;0.30;99.90;;;;;;4880069;29;20445;-44
2024/01/17 11:24:43;;;;;;;15.57;10.52;;;0.30;99.90;;;;;;4877340;29;20101;-44
2024/01/17 11:27:31;;;;;;;14.57;10.18;;;0.30;99.90;;;;;;4885147;29;20041;-44
2024/01/17 11:30:07;;;;;;;18.67;10.70;;;0.40;99.90;;;;;;4876706;29;20539;-44
2024/01/17 11:33:10;;;;;;;15.10;10.15;;;0.40;99.90;;;;;;4882527;29;20067;-46
2024/01/17 11:35:46;;;;;;;16.50;11.10;;;0.40;99.90;;;;;;4878412;29;20485;-45
2024/01/17 11:38:12;;;;;;;15.70;10.10;;;0.50;99.90;;;;;;4882694;29;20073;-45
2024/01/17 11:40:39;;;;;;;17.65;10.77;;;0.50;99.90;;;;;;4882011;29;20083;-44
2024/01/17 11:43:04;;;;;;;17.25;10.90;;;0.50;99.90;;;;;;4890653;29;20075;-44
2024/01/17 11:45:31;;;;;;;16.45;10.35;;;0.60;99.90;;;;;;4884834;29;20444;-44
2024/01/17 11:47:56;;;;;;;15.05;10.30;;;0.60;99.90;;;;;;4882799;29;20049;-44
2024/01/17 11:50:22;;;;;;;16.95;10.35;;;0.70;99.90;;;;;;4883397;29;20044;-44
2024/01/17 11:52:48;;;;;;;14.77;10.65;;;0.70;99.90;;;;;;4884838;29;20064;-46
2024/01/17 11:55:15;;;;;;;16.30;11.00;;;0.70;99.90;;;;;;4884167;29;20049;-45
2024/01/17 11:57:41;;;;;;;17.05;10.85;;;0.70;99.90;;;;;;4882633;29;20501;-45
2024/01/17 12:00:11;;;;;;;16.58;11.13;;;0.70;99.90;;;;;;4877647;29;20108;-44
2024/01/17 12:02:38;;;;;;;14.30;10.48;;;0.70;99.90;;;;;;4878802;29;20049;-45
2024/01/17 12:05:08;;;;;;;14.88;11.27;;;0.70;99.90;;;;;;4888517;29;20499;-44
2024/01/17 12:07:39;;;;;;;19.75;10.82;;;0.70;99.90;;;;;;4883027;29;20510;-44
2024/01/17 12:10:09;;;;;;;14.80;10.30;;;0.70;99.90;;;;;;4881609;29;20049;-45
2024/01/17 12:12:42;;;;;;;15.07;10.15;;;0.70;99.90;;;;;;4882147;29;20128;-44
2024/01/17 12:15:12;;;;;;;18.80;11.57;;;0.70;99.90;;;;;;4883235;29;20056;-44
2024/01/17 12:17:39;;;;;;;14.27;10.88;;;0.80;99.90;;;;;;4883796;29;20404;-44
2024/01/17 12:20:08;;;;;;;15.50;10.15;;;0.80;99.90;;;;;;4886686;29;20124;-44
2024/01/17 12:22:35;;;;;;;17.15;11.05;;;0.70;99.90;;;;;;4882005;29;20065;-46
2024/01/17 12:25:01;;;;;;;14.93;10.55;;;0.80;99.90;;;;;;4885452;29;20045;-44
2024/01/17 12:27:31;;;;;;;16.90;11.20;;;0.80;99.90;;;;;;4887820;29;20051;-45
2024/01/17 12:30:05;;;;;;;18.67;11.25;;;0.90;99.90;;;;;;4884177;29;20036;-44